Main page


Airports :

Ouagadougou, Burkina Faso

Ouagadougou Airport

latitude: 12-21N, longitude: 001-31W, elevation: 316 m

Current weather observation

The report was made 2 hours and 12 minutes ago, at 21:00 UTC
Wind 7 kt from the North/Northeast
Temperature 34°C
Humidity 13%
Pressure 1011 hPa
Visibility: 8000 m

METAR: DFFD 222100Z 02007KT 8000 NSC 34/02 Q1011 NOSIG

Time: 23:12 (23:12 UTC)


The report was made 6 hours and 12 minutes ago, at 17:00 UTC
Forecast valid from 22 at 18 UTC to 23 at 24 UTC
Wind 10 kt from the North
Visibility 10 km or more
Few clouds at a height of 2600 ft
Probability 30% :
from 22 at 18 UTC to 22 at 22 UTC
Few clouds at a height of 2600 ft
Few clouds at a height of 4000 ft, Cumulonimbus.
from 22 at 22 UTC to 22 at 24 UTC
Visibility: 3500 m
widespread dust

TAF: DFFD 221700Z 2218/2324 36010KT 9999 FEW026 PROB30 TEMPO 2218/2222 TS FEW026 FEW040CB BECMG 2222/2224 3500 DU

Weather observations and forecasts of more than 4000 airports (METAR and TAF reports).

The available stations are represented by yellow and red dots on the map.

Hover mouse over dot to see the name of the station.

Then click to see weather observations and forecasts.

To change the map : click on the green buttons with a black cross to zoom in, on the green button with a dash to zoom out, or on the green arrows for adjacent maps.